Terminal Aerodrome Forecast
Issued by NWS

Home | Current Version | Previous Version | Text Only | Print | Product List | Glossary Off
Versions: 1 2 3 4 5 6 7 8 9 10 11 12 13 14

000
FTUS45 KGGW 172056 AAA
TAFSDY
TAF AMD
KSDY 172056Z 1721/1818 24016KT P6SM FEW200
     FM180000 22009KT P6SM SKC
     FM180300 21007KT P6SM SCT200 WS020/24040KT
     FM180600 25014G30KT P6SM FEW200 WS020/28050KT
     FM180900 28019G28KT P6SM FEW200
     FM181500 28012KT P6SM FEW200=

USA.gov is the U.S. government's official web portal to all federal, state and local government web resources and services.